sensor_id;sensor_type;location;lat;lon;timestamp;P1;durP1;ratioP1;P2;durP2;ratioP2
5543;SDS011;2795;47.652;13.128;2023-01-13T00:01:14;13.27;;;3.87;;
5543;SDS011;2795;47.652;13.128;2023-01-13T00:03:42;9.83;;;3.80;;
5543;SDS011;2795;47.652;13.128;2023-01-13T00:06:15;10.77;;;4.33;;
5543;SDS011;2795;47.652;13.128;2023-01-13T00:08:46;9.60;;;3.90;;
5543;SDS011;2795;47.652;13.128;2023-01-13T00:11:14;5.43;;;3.20;;
5543;SDS011;2795;47.652;13.128;2023-01-13T00:13:40;7.93;;;3.83;;
5543;SDS011;2795;47.652;13.128;2023-01-13T00:16:09;5.23;;;3.50;;
5543;SDS011;2795;47.652;13.128;2023-01-13T00:18:37;11.03;;;4.70;;
5543;SDS011;2795;47.652;13.128;2023-01-13T00:21:05;8.83;;;3.60;;
5543;SDS011;2795;47.652;13.128;2023-01-13T00:23:34;7.27;;;4.00;;
5543;SDS011;2795;47.652;13.128;2023-01-13T00:26:05;6.77;;;3.50;;
5543;SDS011;2795;47.652;13.128;2023-01-13T00:28:34;7.00;;;3.77;;
5543;SDS011;2795;47.652;13.128;2023-01-13T00:33:34;9.70;;;4.50;;
5543;SDS011;2795;47.652;13.128;2023-01-13T00:36:00;7.47;;;3.57;;
5543;SDS011;2795;47.652;13.128;2023-01-13T00:38:29;6.70;;;3.73;;
5543;SDS011;2795;47.652;13.128;2023-01-13T00:41:00;6.57;;;3.47;;
5543;SDS011;2795;47.652;13.128;2023-01-13T00:43:35;5.50;;;3.57;;
5543;SDS011;2795;47.652;13.128;2023-01-13T00:46:03;6.60;;;3.70;;
5543;SDS011;2795;47.652;13.128;2023-01-13T00:48:32;7.20;;;3.53;;
5543;SDS011;2795;47.652;13.128;2023-01-13T00:51:00;8.87;;;3.67;;
5543;SDS011;2795;47.652;13.128;2023-01-13T00:53:32;6.87;;;4.00;;
5543;SDS011;2795;47.652;13.128;2023-01-13T00:58:27;8.43;;;4.40;;
5543;SDS011;2795;47.652;13.128;2023-01-13T01:01:03;7.53;;;3.63;;
5543;SDS011;2795;47.652;13.128;2023-01-13T01:03:38;6.83;;;4.00;;
5543;SDS011;2795;47.652;13.128;2023-01-13T01:06:11;12.97;;;4.33;;
5543;SDS011;2795;47.652;13.128;2023-01-13T01:08:42;8.20;;;3.63;;
5543;SDS011;2795;47.652;13.128;2023-01-13T01:11:13;9.97;;;4.00;;
5543;SDS011;2795;47.652;13.128;2023-01-13T01:13:44;7.23;;;3.33;;
5543;SDS011;2795;47.652;13.128;2023-01-13T01:16:13;12.03;;;3.93;;
5543;SDS011;2795;47.652;13.128;2023-01-13T01:18:43;7.07;;;3.90;;
5543;SDS011;2795;47.652;13.128;2023-01-13T01:21:10;12.57;;;4.27;;
5543;SDS011;2795;47.652;13.128;2023-01-13T01:23:38;5.83;;;3.47;;
5543;SDS011;2795;47.652;13.128;2023-01-13T01:26:21;10.10;;;3.83;;
5543;SDS011;2795;47.652;13.128;2023-01-13T01:28:49;9.17;;;3.63;;
5543;SDS011;2795;47.652;13.128;2023-01-13T01:31:20;5.87;;;3.10;;
5543;SDS011;2795;47.652;13.128;2023-01-13T01:33:48;10.03;;;4.20;;
5543;SDS011;2795;47.652;13.128;2023-01-13T01:36:16;10.20;;;3.70;;
5543;SDS011;2795;47.652;13.128;2023-01-13T01:38:44;6.50;;;3.60;;
5543;SDS011;2795;47.652;13.128;2023-01-13T01:41:15;5.87;;;3.70;;
5543;SDS011;2795;47.652;13.128;2023-01-13T01:43:49;8.40;;;4.10;;
5543;SDS011;2795;47.652;13.128;2023-01-13T01:46:39;10.70;;;4.27;;
5543;SDS011;2795;47.652;13.128;2023-01-13T01:51:52;7.80;;;3.60;;
5543;SDS011;2795;47.652;13.128;2023-01-13T01:54:23;11.70;;;4.00;;
5543;SDS011;2795;47.652;13.128;2023-01-13T01:57:00;8.20;;;3.80;;
5543;SDS011;2795;47.652;13.128;2023-01-13T01:59:26;10.37;;;3.97;;
5543;SDS011;2795;47.652;13.128;2023-01-13T02:01:54;7.43;;;3.60;;
5543;SDS011;2795;47.652;13.128;2023-01-13T02:04:22;10.67;;;4.00;;
5543;SDS011;2795;47.652;13.128;2023-01-13T02:06:52;5.73;;;3.13;;
5543;SDS011;2795;47.652;13.128;2023-01-13T02:09:19;12.17;;;3.73;;
5543;SDS011;2795;47.652;13.128;2023-01-13T02:11:45;9.70;;;3.80;;
5543;SDS011;2795;47.652;13.128;2023-01-13T02:14:30;6.53;;;3.50;;
5543;SDS011;2795;47.652;13.128;2023-01-13T02:17:14;12.87;;;4.30;;
5543;SDS011;2795;47.652;13.128;2023-01-13T02:29:29;9.30;;;3.50;;
5543;SDS011;2795;47.652;13.128;2023-01-13T02:32:32;9.63;;;3.67;;
5543;SDS011;2795;47.652;13.128;2023-01-13T02:37:52;6.80;;;3.20;;
5543;SDS011;2795;47.652;13.128;2023-01-13T02:40:24;10.03;;;3.37;;
5543;SDS011;2795;47.652;13.128;2023-01-13T02:45:54;9.80;;;3.70;;
5543;SDS011;2795;47.652;13.128;2023-01-13T02:48:26;11.70;;;4.20;;
5543;SDS011;2795;47.652;13.128;2023-01-13T02:51:08;13.13;;;4.27;;
5543;SDS011;2795;47.652;13.128;2023-01-13T02:53:49;6.47;;;3.57;;
5543;SDS011;2795;47.652;13.128;2023-01-13T02:56:19;10.43;;;3.80;;
5543;SDS011;2795;47.652;13.128;2023-01-13T02:58:46;15.03;;;4.43;;
5543;SDS011;2795;47.652;13.128;2023-01-13T03:01:13;19.97;;;5.40;;
5543;SDS011;2795;47.652;13.128;2023-01-13T03:03:40;4.57;;;3.50;;
5543;SDS011;2795;47.652;13.128;2023-01-13T03:06:11;8.20;;;3.20;;
5543;SDS011;2795;47.652;13.128;2023-01-13T03:12:02;10.30;;;3.97;;
5543;SDS011;2795;47.652;13.128;2023-01-13T03:14:43;9.80;;;4.10;;
5543;SDS011;2795;47.652;13.128;2023-01-13T03:17:59;8.83;;;3.73;;
5543;SDS011;2795;47.652;13.128;2023-01-13T03:20:14;6.20;;;3.13;;
5543;SDS011;2795;47.652;13.128;2023-01-13T03:22:52;5.73;;;3.33;;
5543;SDS011;2795;47.652;13.128;2023-01-13T03:28:24;13.00;;;4.37;;
5543;SDS011;2795;47.652;13.128;2023-01-13T03:30:56;8.97;;;4.00;;
5543;SDS011;2795;47.652;13.128;2023-01-13T03:33:38;8.07;;;3.37;;
5543;SDS011;2795;47.652;13.128;2023-01-13T03:36:11;8.97;;;3.50;;
5543;SDS011;2795;47.652;13.128;2023-01-13T03:38:40;10.03;;;3.20;;
5543;SDS011;2795;47.652;13.128;2023-01-13T03:41:10;7.20;;;3.70;;
5543;SDS011;2795;47.652;13.128;2023-01-13T03:44:22;5.87;;;2.93;;
5543;SDS011;2795;47.652;13.128;2023-01-13T03:47:00;8.30;;;3.23;;
5543;SDS011;2795;47.652;13.128;2023-01-13T03:49:54;8.27;;;3.83;;
5543;SDS011;2795;47.652;13.128;2023-01-13T03:52:25;13.13;;;4.03;;
5543;SDS011;2795;47.652;13.128;2023-01-13T03:54:55;8.23;;;3.40;;
5543;SDS011;2795;47.652;13.128;2023-01-13T03:57:25;9.70;;;3.30;;
5543;SDS011;2795;47.652;13.128;2023-01-13T03:59:56;7.53;;;3.30;;
5543;SDS011;2795;47.652;13.128;2023-01-13T04:02:28;11.00;;;4.20;;
5543;SDS011;2795;47.652;13.128;2023-01-13T04:05:00;8.13;;;3.40;;
5543;SDS011;2795;47.652;13.128;2023-01-13T04:10:40;6.53;;;3.27;;
5543;SDS011;2795;47.652;13.128;2023-01-13T04:13:11;5.57;;;2.83;;
5543;SDS011;2795;47.652;13.128;2023-01-13T04:15:41;5.57;;;3.13;;
5543;SDS011;2795;47.652;13.128;2023-01-13T04:18:14;12.37;;;4.03;;
5543;SDS011;2795;47.652;13.128;2023-01-13T04:20:48;9.77;;;3.80;;
5543;SDS011;2795;47.652;13.128;2023-01-13T04:23:16;8.13;;;3.20;;
5543;SDS011;2795;47.652;13.128;2023-01-13T04:25:43;5.17;;;3.20;;
5543;SDS011;2795;47.652;13.128;2023-01-13T04:28:10;9.90;;;3.90;;
5543;SDS011;2795;47.652;13.128;2023-01-13T04:30:37;5.33;;;3.20;;
5543;SDS011;2795;47.652;13.128;2023-01-13T04:33:04;8.03;;;3.13;;
5543;SDS011;2795;47.652;13.128;2023-01-13T04:35:32;10.00;;;3.40;;
5543;SDS011;2795;47.652;13.128;2023-01-13T04:38:00;7.90;;;3.40;;
5543;SDS011;2795;47.652;13.128;2023-01-13T04:40:31;3.90;;;2.80;;
5543;SDS011;2795;47.652;13.128;2023-01-13T04:42:58;5.90;;;2.67;;
5543;SDS011;2795;47.652;13.128;2023-01-13T04:45:25;10.33;;;3.77;;
5543;SDS011;2795;47.652;13.128;2023-01-13T04:47:51;7.03;;;3.50;;
5543;SDS011;2795;47.652;13.128;2023-01-13T04:50:19;7.03;;;3.10;;
5543;SDS011;2795;47.652;13.128;2023-01-13T04:52:46;7.80;;;3.70;;
5543;SDS011;2795;47.652;13.128;2023-01-13T04:55:21;10.00;;;3.90;;
5543;SDS011;2795;47.652;13.128;2023-01-13T04:57:53;7.57;;;3.10;;
5543;SDS011;2795;47.652;13.128;2023-01-13T05:00:21;13.30;;;3.70;;
5543;SDS011;2795;47.652;13.128;2023-01-13T05:02:49;6.10;;;2.60;;
5543;SDS011;2795;47.652;13.128;2023-01-13T05:05:17;12.37;;;3.80;;
5543;SDS011;2795;47.652;13.128;2023-01-13T05:07:44;5.60;;;2.87;;
5543;SDS011;2795;47.652;13.128;2023-01-13T05:10:12;8.97;;;3.67;;
5543;SDS011;2795;47.652;13.128;2023-01-13T05:12:39;7.20;;;3.20;;
5543;SDS011;2795;47.652;13.128;2023-01-13T05:15:25;7.10;;;2.90;;
5543;SDS011;2795;47.652;13.128;2023-01-13T05:18:10;7.70;;;3.27;;
5543;SDS011;2795;47.652;13.128;2023-01-13T05:20:37;4.03;;;2.63;;
5543;SDS011;2795;47.652;13.128;2023-01-13T05:23:04;5.43;;;2.80;;
5543;SDS011;2795;47.652;13.128;2023-01-13T05:25:49;3.20;;;2.60;;
5543;SDS011;2795;47.652;13.128;2023-01-13T05:28:16;6.13;;;2.80;;
5543;SDS011;2795;47.652;13.128;2023-01-13T05:30:43;7.83;;;2.87;;
5543;SDS011;2795;47.652;13.128;2023-01-13T05:33:13;6.50;;;2.80;;
5543;SDS011;2795;47.652;13.128;2023-01-13T05:35:41;7.47;;;3.00;;
5543;SDS011;2795;47.652;13.128;2023-01-13T05:38:10;5.80;;;2.60;;
5543;SDS011;2795;47.652;13.128;2023-01-13T05:40:39;7.30;;;3.00;;
5543;SDS011;2795;47.652;13.128;2023-01-13T05:43:25;9.43;;;3.33;;
5543;SDS011;2795;47.652;13.128;2023-01-13T05:48:27;8.10;;;2.90;;
5543;SDS011;2795;47.652;13.128;2023-01-13T05:50:57;6.37;;;3.00;;
5543;SDS011;2795;47.652;13.128;2023-01-13T05:53:26;13.27;;;4.00;;
5543;SDS011;2795;47.652;13.128;2023-01-13T05:55:54;9.77;;;3.20;;
5543;SDS011;2795;47.652;13.128;2023-01-13T05:58:24;8.37;;;3.00;;
5543;SDS011;2795;47.652;13.128;2023-01-13T06:00:52;7.43;;;3.20;;
5543;SDS011;2795;47.652;13.128;2023-01-13T06:03:26;6.43;;;3.23;;
5543;SDS011;2795;47.652;13.128;2023-01-13T06:05:54;5.20;;;2.70;;
5543;SDS011;2795;47.652;13.128;2023-01-13T06:08:24;11.40;;;3.23;;
5543;SDS011;2795;47.652;13.128;2023-01-13T06:10:51;12.20;;;3.50;;
5543;SDS011;2795;47.652;13.128;2023-01-13T06:13:17;10.53;;;3.53;;
5543;SDS011;2795;47.652;13.128;2023-01-13T06:15:44;11.97;;;3.87;;
5543;SDS011;2795;47.652;13.128;2023-01-13T06:18:10;11.63;;;3.50;;
5543;SDS011;2795;47.652;13.128;2023-01-13T06:20:37;9.97;;;3.60;;
5543;SDS011;2795;47.652;13.128;2023-01-13T06:23:04;5.37;;;3.00;;
5543;SDS011;2795;47.652;13.128;2023-01-13T06:25:45;8.73;;;3.00;;
5543;SDS011;2795;47.652;13.128;2023-01-13T06:28:15;5.90;;;2.97;;
5543;SDS011;2795;47.652;13.128;2023-01-13T06:30:43;6.10;;;2.93;;
5543;SDS011;2795;47.652;13.128;2023-01-13T06:33:13;6.87;;;3.20;;
5543;SDS011;2795;47.652;13.128;2023-01-13T06:35:45;6.60;;;3.17;;
5543;SDS011;2795;47.652;13.128;2023-01-13T06:38:18;12.90;;;4.07;;
5543;SDS011;2795;47.652;13.128;2023-01-13T06:40:47;6.83;;;2.97;;
5543;SDS011;2795;47.652;13.128;2023-01-13T06:43:13;12.73;;;3.97;;
5543;SDS011;2795;47.652;13.128;2023-01-13T06:45:47;7.03;;;3.03;;
5543;SDS011;2795;47.652;13.128;2023-01-13T06:48:16;4.23;;;3.07;;
5543;SDS011;2795;47.652;13.128;2023-01-13T06:50:44;5.60;;;2.70;;
5543;SDS011;2795;47.652;13.128;2023-01-13T06:53:12;8.40;;;3.07;;
5543;SDS011;2795;47.652;13.128;2023-01-13T06:55:40;13.00;;;3.70;;
5543;SDS011;2795;47.652;13.128;2023-01-13T06:58:06;7.50;;;2.97;;
5543;SDS011;2795;47.652;13.128;2023-01-13T07:00:33;6.93;;;3.10;;
5543;SDS011;2795;47.652;13.128;2023-01-13T07:03:09;8.13;;;3.60;;
5543;SDS011;2795;47.652;13.128;2023-01-13T07:05:37;6.77;;;3.10;;
5543;SDS011;2795;47.652;13.128;2023-01-13T07:08:05;8.60;;;3.03;;
5543;SDS011;2795;47.652;13.128;2023-01-13T07:10:32;12.13;;;3.83;;
5543;SDS011;2795;47.652;13.128;2023-01-13T07:13:00;8.53;;;3.03;;
5543;SDS011;2795;47.652;13.128;2023-01-13T07:15:51;6.10;;;2.97;;
5543;SDS011;2795;47.652;13.128;2023-01-13T07:18:21;15.83;;;3.70;;
5543;SDS011;2795;47.652;13.128;2023-01-13T07:20:55;10.37;;;3.17;;
5543;SDS011;2795;47.652;13.128;2023-01-13T07:23:26;8.13;;;3.33;;
5543;SDS011;2795;47.652;13.128;2023-01-13T07:25:54;9.80;;;3.57;;
5543;SDS011;2795;47.652;13.128;2023-01-13T07:28:22;17.07;;;3.77;;
5543;SDS011;2795;47.652;13.128;2023-01-13T07:30:49;9.27;;;3.60;;
5543;SDS011;2795;47.652;13.128;2023-01-13T07:33:20;9.33;;;2.93;;
5543;SDS011;2795;47.652;13.128;2023-01-13T07:36:00;14.57;;;4.40;;
5543;SDS011;2795;47.652;13.128;2023-01-13T07:38:31;8.53;;;3.10;;
5543;SDS011;2795;47.652;13.128;2023-01-13T07:41:01;13.80;;;4.00;;
5543;SDS011;2795;47.652;13.128;2023-01-13T07:43:50;8.10;;;3.33;;
5543;SDS011;2795;47.652;13.128;2023-01-13T07:46:17;5.40;;;2.80;;
5543;SDS011;2795;47.652;13.128;2023-01-13T07:48:45;6.20;;;2.83;;
5543;SDS011;2795;47.652;13.128;2023-01-13T07:51:13;10.50;;;2.87;;
5543;SDS011;2795;47.652;13.128;2023-01-13T07:53:40;5.87;;;2.40;;
5543;SDS011;2795;47.652;13.128;2023-01-13T07:56:06;3.10;;;2.40;;
5543;SDS011;2795;47.652;13.128;2023-01-13T07:58:34;5.70;;;2.90;;
5543;SDS011;2795;47.652;13.128;2023-01-13T08:01:11;10.37;;;3.33;;
5543;SDS011;2795;47.652;13.128;2023-01-13T08:03:39;10.03;;;3.10;;
5543;SDS011;2795;47.652;13.128;2023-01-13T08:06:06;12.77;;;2.97;;
5543;SDS011;2795;47.652;13.128;2023-01-13T08:08:33;7.60;;;2.53;;
5543;SDS011;2795;47.652;13.128;2023-01-13T08:11:00;13.13;;;3.60;;
5543;SDS011;2795;47.652;13.128;2023-01-13T08:13:27;11.80;;;3.73;;
5543;SDS011;2795;47.652;13.128;2023-01-13T08:15:58;27.40;;;3.37;;
5543;SDS011;2795;47.652;13.128;2023-01-13T08:18:26;9.20;;;2.83;;
5543;SDS011;2795;47.652;13.128;2023-01-13T08:20:53;9.00;;;3.20;;
5543;SDS011;2795;47.652;13.128;2023-01-13T08:23:20;11.63;;;3.63;;
5543;SDS011;2795;47.652;13.128;2023-01-13T08:25:48;11.17;;;3.40;;
5543;SDS011;2795;47.652;13.128;2023-01-13T08:28:15;5.37;;;2.37;;
5543;SDS011;2795;47.652;13.128;2023-01-13T08:30:42;25.90;;;2.90;;
5543;SDS011;2795;47.652;13.128;2023-01-13T08:33:10;4.70;;;2.70;;
5543;SDS011;2795;47.652;13.128;2023-01-13T08:35:38;10.83;;;3.30;;
5543;SDS011;2795;47.652;13.128;2023-01-13T08:38:05;7.77;;;3.20;;
5543;SDS011;2795;47.652;13.128;2023-01-13T08:40:34;15.07;;;4.13;;
5543;SDS011;2795;47.652;13.128;2023-01-13T08:43:01;10.27;;;3.53;;
5543;SDS011;2795;47.652;13.128;2023-01-13T08:45:28;16.03;;;4.43;;
5543;SDS011;2795;47.652;13.128;2023-01-13T08:47:55;12.97;;;3.37;;
5543;SDS011;2795;47.652;13.128;2023-01-13T08:50:21;6.63;;;2.70;;
5543;SDS011;2795;47.652;13.128;2023-01-13T08:52:48;7.10;;;2.67;;
5543;SDS011;2795;47.652;13.128;2023-01-13T08:55:15;8.63;;;3.00;;
5543;SDS011;2795;47.652;13.128;2023-01-13T08:57:41;17.67;;;3.97;;
5543;SDS011;2795;47.652;13.128;2023-01-13T09:00:10;5.87;;;2.37;;
5543;SDS011;2795;47.652;13.128;2023-01-13T09:02:39;8.93;;;3.07;;
5543;SDS011;2795;47.652;13.128;2023-01-13T09:05:07;7.90;;;3.00;;
5543;SDS011;2795;47.652;13.128;2023-01-13T09:07:34;7.43;;;2.80;;
5543;SDS011;2795;47.652;13.128;2023-01-13T09:10:03;15.20;;;3.50;;
5543;SDS011;2795;47.652;13.128;2023-01-13T09:12:33;12.17;;;3.40;;
5543;SDS011;2795;47.652;13.128;2023-01-13T09:15:18;9.67;;;3.20;;
5543;SDS011;2795;47.652;13.128;2023-01-13T09:17:48;9.40;;;3.00;;
5543;SDS011;2795;47.652;13.128;2023-01-13T09:20:15;11.43;;;2.80;;
5543;SDS011;2795;47.652;13.128;2023-01-13T09:22:42;2.97;;;2.30;;
5543;SDS011;2795;47.652;13.128;2023-01-13T09:25:09;4.30;;;2.73;;
5543;SDS011;2795;47.652;13.128;2023-01-13T09:27:38;9.40;;;2.87;;
5543;SDS011;2795;47.652;13.128;2023-01-13T09:30:07;6.00;;;2.53;;
5543;SDS011;2795;47.652;13.128;2023-01-13T09:32:34;12.20;;;3.53;;
5543;SDS011;2795;47.652;13.128;2023-01-13T09:35:04;6.03;;;3.67;;
5543;SDS011;2795;47.652;13.128;2023-01-13T09:37:33;10.00;;;3.87;;
5543;SDS011;2795;47.652;13.128;2023-01-13T09:40:03;10.83;;;3.77;;
5543;SDS011;2795;47.652;13.128;2023-01-13T09:45:41;7.50;;;3.37;;
5543;SDS011;2795;47.652;13.128;2023-01-13T09:48:31;10.70;;;3.20;;
5543;SDS011;2795;47.652;13.128;2023-01-13T09:51:23;8.07;;;2.83;;
5543;SDS011;2795;47.652;13.128;2023-01-13T09:54:44;8.73;;;2.97;;
5543;SDS011;2795;47.652;13.128;2023-01-13T09:56:57;10.17;;;3.20;;
5543;SDS011;2795;47.652;13.128;2023-01-13T09:59:30;11.23;;;3.87;;
5543;SDS011;2795;47.652;13.128;2023-01-13T10:02:06;16.03;;;4.10;;
5543;SDS011;2795;47.652;13.128;2023-01-13T10:05:00;4.50;;;2.80;;
5543;SDS011;2795;47.652;13.128;2023-01-13T10:07:28;9.43;;;3.50;;
5543;SDS011;2795;47.652;13.128;2023-01-13T10:09:57;9.60;;;3.43;;
5543;SDS011;2795;47.652;13.128;2023-01-13T10:12:27;9.20;;;3.23;;
5543;SDS011;2795;47.652;13.128;2023-01-13T10:15:13;5.50;;;2.93;;
5543;SDS011;2795;47.652;13.128;2023-01-13T10:17:49;8.20;;;2.87;;
5543;SDS011;2795;47.652;13.128;2023-01-13T10:23:18;11.67;;;3.33;;
5543;SDS011;2795;47.652;13.128;2023-01-13T10:28:55;5.80;;;2.70;;
5543;SDS011;2795;47.652;13.128;2023-01-13T10:31:23;14.43;;;3.20;;
5543;SDS011;2795;47.652;13.128;2023-01-13T10:33:57;8.87;;;2.90;;
5543;SDS011;2795;47.652;13.128;2023-01-13T10:36:26;12.00;;;3.63;;
5543;SDS011;2795;47.652;13.128;2023-01-13T10:38:53;9.10;;;3.30;;
5543;SDS011;2795;47.652;13.128;2023-01-13T10:41:32;6.30;;;2.77;;
5543;SDS011;2795;47.652;13.128;2023-01-13T10:44:03;7.10;;;3.00;;
5543;SDS011;2795;47.652;13.128;2023-01-13T10:46:35;6.13;;;2.87;;
5543;SDS011;2795;47.652;13.128;2023-01-13T10:49:33;7.83;;;3.20;;
5543;SDS011;2795;47.652;13.128;2023-01-13T10:52:04;10.70;;;3.03;;
5543;SDS011;2795;47.652;13.128;2023-01-13T10:54:52;16.70;;;4.47;;
5543;SDS011;2795;47.652;13.128;2023-01-13T10:57:22;5.33;;;2.60;;
5543;SDS011;2795;47.652;13.128;2023-01-13T10:59:50;8.73;;;3.47;;
5543;SDS011;2795;47.652;13.128;2023-01-13T11:02:19;9.50;;;3.70;;
5543;SDS011;2795;47.652;13.128;2023-01-13T11:12:35;9.40;;;3.00;;
5543;SDS011;2795;47.652;13.128;2023-01-13T11:15:24;4.53;;;1.87;;
5543;SDS011;2795;47.652;13.128;2023-01-13T11:18:13;5.67;;;2.70;;
5543;SDS011;2795;47.652;13.128;2023-01-13T11:20:45;4.20;;;2.47;;
5543;SDS011;2795;47.652;13.128;2023-01-13T11:25:57;5.67;;;2.47;;
5543;SDS011;2795;47.652;13.128;2023-01-13T11:28:37;7.10;;;2.70;;
5543;SDS011;2795;47.652;13.128;2023-01-13T11:33:56;7.10;;;2.60;;
5543;SDS011;2795;47.652;13.128;2023-01-13T11:36:27;8.40;;;3.03;;
5543;SDS011;2795;47.652;13.128;2023-01-13T11:41:47;6.37;;;2.70;;
5543;SDS011;2795;47.652;13.128;2023-01-13T11:44:41;3.93;;;1.97;;
5543;SDS011;2795;47.652;13.128;2023-01-13T11:47:11;5.53;;;2.40;;
5543;SDS011;2795;47.652;13.128;2023-01-13T11:49:39;15.53;;;3.30;;
5543;SDS011;2795;47.652;13.128;2023-01-13T11:52:16;6.60;;;3.10;;
5543;SDS011;2795;47.652;13.128;2023-01-13T12:00:23;11.50;;;3.63;;
5543;SDS011;2795;47.652;13.128;2023-01-13T12:03:39;8.37;;;2.97;;
5543;SDS011;2795;47.652;13.128;2023-01-13T12:14:39;6.43;;;2.40;;
5543;SDS011;2795;47.652;13.128;2023-01-13T12:17:29;3.73;;;2.40;;
5543;SDS011;2795;47.652;13.128;2023-01-13T12:23:10;9.20;;;3.07;;
5543;SDS011;2795;47.652;13.128;2023-01-13T12:26:03;7.60;;;2.93;;
5543;SDS011;2795;47.652;13.128;2023-01-13T12:28:47;4.80;;;2.47;;
5543;SDS011;2795;47.652;13.128;2023-01-13T12:31:15;5.67;;;2.70;;
5543;SDS011;2795;47.652;13.128;2023-01-13T12:33:50;9.00;;;3.30;;
5543;SDS011;2795;47.652;13.128;2023-01-13T12:39:23;7.87;;;2.43;;
5543;SDS011;2795;47.652;13.128;2023-01-13T12:45:15;5.43;;;2.20;;
5543;SDS011;2795;47.652;13.128;2023-01-13T12:47:46;6.23;;;2.43;;
5543;SDS011;2795;47.652;13.128;2023-01-13T12:52:50;4.93;;;2.13;;
5543;SDS011;2795;47.652;13.128;2023-01-13T12:55:22;4.90;;;2.20;;
5543;SDS011;2795;47.652;13.128;2023-01-13T12:57:57;4.87;;;2.43;;
5543;SDS011;2795;47.652;13.128;2023-01-13T13:00:31;8.30;;;3.23;;
5543;SDS011;2795;47.652;13.128;2023-01-13T13:05:47;6.37;;;2.80;;
5543;SDS011;2795;47.652;13.128;2023-01-13T13:20:02;6.93;;;2.87;;
5543;SDS011;2795;47.652;13.128;2023-01-13T13:37:49;5.77;;;2.50;;
5543;SDS011;2795;47.652;13.128;2023-01-13T13:40:44;5.63;;;2.47;;
5543;SDS011;2795;47.652;13.128;2023-01-13T13:43:31;9.17;;;3.10;;
5543;SDS011;2795;47.652;13.128;2023-01-13T13:46:28;4.90;;;2.00;;
5543;SDS011;2795;47.652;13.128;2023-01-13T13:49:18;5.03;;;2.57;;
5543;SDS011;2795;47.652;13.128;2023-01-13T13:51:57;11.00;;;3.60;;
5543;SDS011;2795;47.652;13.128;2023-01-13T13:54:38;14.00;;;3.70;;
5543;SDS011;2795;47.652;13.128;2023-01-13T13:57:17;6.80;;;2.97;;
5543;SDS011;2795;47.652;13.128;2023-01-13T14:00:06;9.87;;;2.90;;
5543;SDS011;2795;47.652;13.128;2023-01-13T14:02:46;7.37;;;3.10;;
5543;SDS011;2795;47.652;13.128;2023-01-13T14:05:22;7.30;;;2.73;;
5543;SDS011;2795;47.652;13.128;2023-01-13T14:08:01;6.90;;;2.87;;
5543;SDS011;2795;47.652;13.128;2023-01-13T14:10:36;18.70;;;3.20;;
5543;SDS011;2795;47.652;13.128;2023-01-13T14:15:57;9.53;;;2.73;;
5543;SDS011;2795;47.652;13.128;2023-01-13T14:18:28;9.07;;;3.20;;
5543;SDS011;2795;47.652;13.128;2023-01-13T14:20:58;4.33;;;2.40;;
5543;SDS011;2795;47.652;13.128;2023-01-13T14:23:28;8.97;;;3.03;;
5543;SDS011;2795;47.652;13.128;2023-01-13T14:26:06;8.63;;;2.87;;
5543;SDS011;2795;47.652;13.128;2023-01-13T14:28:37;16.43;;;3.67;;
5543;SDS011;2795;47.652;13.128;2023-01-13T14:31:08;8.60;;;3.20;;
5543;SDS011;2795;47.652;13.128;2023-01-13T14:33:40;8.33;;;3.20;;
5543;SDS011;2795;47.652;13.128;2023-01-13T14:44:21;8.23;;;3.17;;
5543;SDS011;2795;47.652;13.128;2023-01-13T14:46:56;8.63;;;3.30;;
5543;SDS011;2795;47.652;13.128;2023-01-13T14:49:39;10.00;;;3.33;;
5543;SDS011;2795;47.652;13.128;2023-01-13T15:05:42;10.10;;;3.60;;
5543;SDS011;2795;47.652;13.128;2023-01-13T15:08:06;14.20;;;4.97;;
5543;SDS011;2795;47.652;13.128;2023-01-13T15:10:49;12.93;;;4.07;;
5543;SDS011;2795;47.652;13.128;2023-01-13T15:16:03;6.60;;;3.30;;
5543;SDS011;2795;47.652;13.128;2023-01-13T15:18:53;5.17;;;3.20;;
5543;SDS011;2795;47.652;13.128;2023-01-13T15:21:22;13.27;;;5.03;;
5543;SDS011;2795;47.652;13.128;2023-01-13T15:23:52;13.17;;;5.17;;
5543;SDS011;2795;47.652;13.128;2023-01-13T15:26:20;12.47;;;4.20;;
5543;SDS011;2795;47.652;13.128;2023-01-13T15:28:50;11.17;;;4.47;;
5543;SDS011;2795;47.652;13.128;2023-01-13T15:31:17;12.23;;;4.70;;
5543;SDS011;2795;47.652;13.128;2023-01-13T15:33:47;7.77;;;3.57;;
5543;SDS011;2795;47.652;13.128;2023-01-13T15:36:19;12.20;;;4.87;;
5543;SDS011;2795;47.652;13.128;2023-01-13T15:38:54;6.50;;;3.83;;
5543;SDS011;2795;47.652;13.128;2023-01-13T15:41:23;12.90;;;4.40;;
5543;SDS011;2795;47.652;13.128;2023-01-13T15:44:12;17.17;;;5.40;;
5543;SDS011;2795;47.652;13.128;2023-01-13T15:47:01;18.00;;;5.47;;
5543;SDS011;2795;47.652;13.128;2023-01-13T15:49:33;13.60;;;5.43;;
5543;SDS011;2795;47.652;13.128;2023-01-13T15:52:22;12.70;;;5.23;;
5543;SDS011;2795;47.652;13.128;2023-01-13T15:54:51;8.37;;;4.93;;
5543;SDS011;2795;47.652;13.128;2023-01-13T15:57:30;14.83;;;5.87;;
5543;SDS011;2795;47.652;13.128;2023-01-13T16:00:32;16.03;;;7.23;;
5543;SDS011;2795;47.652;13.128;2023-01-13T16:02:52;19.90;;;7.87;;
5543;SDS011;2795;47.652;13.128;2023-01-13T16:05:19;17.67;;;8.27;;
5543;SDS011;2795;47.652;13.128;2023-01-13T16:07:47;6.83;;;5.00;;
5543;SDS011;2795;47.652;13.128;2023-01-13T16:10:14;13.73;;;5.40;;
5543;SDS011;2795;47.652;13.128;2023-01-13T16:12:48;12.27;;;4.60;;
5543;SDS011;2795;47.652;13.128;2023-01-13T16:15:17;10.00;;;4.20;;
5543;SDS011;2795;47.652;13.128;2023-01-13T16:17:50;11.20;;;4.30;;
5543;SDS011;2795;47.652;13.128;2023-01-13T16:20:22;16.77;;;4.90;;
5543;SDS011;2795;47.652;13.128;2023-01-13T16:22:49;6.63;;;3.57;;
5543;SDS011;2795;47.652;13.128;2023-01-13T16:25:19;8.50;;;4.13;;
5543;SDS011;2795;47.652;13.128;2023-01-13T16:27:50;9.03;;;4.23;;
5543;SDS011;2795;47.652;13.128;2023-01-13T16:30:19;11.73;;;4.90;;
5543;SDS011;2795;47.652;13.128;2023-01-13T16:32:48;12.37;;;5.03;;
5543;SDS011;2795;47.652;13.128;2023-01-13T16:35:15;20.40;;;6.10;;
5543;SDS011;2795;47.652;13.128;2023-01-13T16:37:44;26.80;;;8.97;;
5543;SDS011;2795;47.652;13.128;2023-01-13T16:40:17;22.83;;;8.63;;
5543;SDS011;2795;47.652;13.128;2023-01-13T16:42:48;12.83;;;7.57;;
5543;SDS011;2795;47.652;13.128;2023-01-13T16:45:16;19.37;;;7.53;;
5543;SDS011;2795;47.652;13.128;2023-01-13T16:47:44;15.93;;;6.40;;
5543;SDS011;2795;47.652;13.128;2023-01-13T16:50:16;12.40;;;5.67;;
5543;SDS011;2795;47.652;13.128;2023-01-13T16:52:52;15.83;;;6.33;;
5543;SDS011;2795;47.652;13.128;2023-01-13T16:55:19;14.80;;;6.40;;
5543;SDS011;2795;47.652;13.128;2023-01-13T16:57:47;14.70;;;6.13;;
5543;SDS011;2795;47.652;13.128;2023-01-13T17:00:14;15.13;;;5.80;;
5543;SDS011;2795;47.652;13.128;2023-01-13T17:02:43;17.53;;;5.70;;
5543;SDS011;2795;47.652;13.128;2023-01-13T17:05:11;10.40;;;4.77;;
5543;SDS011;2795;47.652;13.128;2023-01-13T17:07:42;18.87;;;6.90;;
5543;SDS011;2795;47.652;13.128;2023-01-13T17:10:12;16.40;;;4.53;;
5543;SDS011;2795;47.652;13.128;2023-01-13T17:12:43;18.77;;;5.37;;
5543;SDS011;2795;47.652;13.128;2023-01-13T17:15:16;18.23;;;6.67;;
5543;SDS011;2795;47.652;13.128;2023-01-13T17:17:44;19.80;;;6.83;;
5543;SDS011;2795;47.652;13.128;2023-01-13T17:20:14;20.00;;;9.07;;
5543;SDS011;2795;47.652;13.128;2023-01-13T17:22:41;15.83;;;5.40;;
5543;SDS011;2795;47.652;13.128;2023-01-13T17:25:13;13.00;;;3.70;;
5543;SDS011;2795;47.652;13.128;2023-01-13T17:27:40;6.30;;;2.90;;
5543;SDS011;2795;47.652;13.128;2023-01-13T17:30:08;6.68;;;2.20;;
5543;SDS011;2795;47.652;13.128;2023-01-13T17:32:37;5.40;;;2.80;;
5543;SDS011;2795;47.652;13.128;2023-01-13T17:35:06;6.60;;;2.50;;
5543;SDS011;2795;47.652;13.128;2023-01-13T17:37:35;9.80;;;3.50;;
5543;SDS011;2795;47.652;13.128;2023-01-13T17:40:02;5.43;;;2.53;;
5543;SDS011;2795;47.652;13.128;2023-01-13T17:42:30;11.30;;;5.23;;
5543;SDS011;2795;47.652;13.128;2023-01-13T17:44:57;13.80;;;7.30;;
5543;SDS011;2795;47.652;13.128;2023-01-13T17:47:26;14.63;;;7.77;;
5543;SDS011;2795;47.652;13.128;2023-01-13T17:49:54;16.13;;;5.30;;